createdAt,value
2018-05-09T00:00:10.793Z,0.00
2018-05-09T00:01:11.003Z,0.00
2018-05-09T00:02:13.192Z,0.00
2018-05-09T00:03:11.406Z,0.00
2018-05-09T00:04:11.626Z,0.00
2018-05-09T00:05:11.848Z,0.00
2018-05-09T00:06:12.058Z,0.00
2018-05-09T00:07:12.275Z,0.00
2018-05-09T00:08:12.486Z,0.00
2018-05-09T00:09:14.185Z,0.00
2018-05-09T00:10:12.895Z,0.00
2018-05-09T00:11:13.114Z,0.00
2018-05-09T00:12:13.323Z,0.00
2018-05-09T00:13:13.534Z,0.00
2018-05-09T00:14:13.748Z,0.00
2018-05-09T00:15:13.958Z,0.00
2018-05-09T00:16:14.181Z,0.00
2018-05-09T00:17:14.381Z,0.00
2018-05-09T00:18:14.590Z,0.00
2018-05-09T00:19:14.825Z,0.00
2018-05-09T00:20:15.042Z,0.00
2018-05-09T00:21:15.286Z,0.00
2018-05-09T00:22:15.495Z,0.00
2018-05-09T00:23:15.680Z,0.00
2018-05-09T00:24:15.908Z,0.00
2018-05-09T00:25:16.126Z,0.00
2018-05-09T00:26:16.337Z,0.00
2018-05-09T00:27:16.563Z,0.00
2018-05-09T00:28:16.794Z,0.00
2018-05-09T00:29:16.998Z,0.00
2018-05-09T00:30:17.224Z,0.00
2018-05-09T00:31:17.463Z,0.00
2018-05-09T00:32:17.646Z,0.00
2018-05-09T00:33:17.866Z,0.00
2018-05-09T00:34:18.090Z,0.00
2018-05-09T00:35:20.189Z,0.00
2018-05-09T00:36:18.521Z,0.00
2018-05-09T00:37:18.750Z,0.00
2018-05-09T00:38:18.977Z,0.00
2018-05-09T00:39:19.193Z,0.00
2018-05-09T00:40:19.403Z,0.00
2018-05-09T00:41:19.613Z,0.00
2018-05-09T00:42:19.836Z,0.00
2018-05-09T00:43:20.052Z,0.00
2018-05-09T00:44:22.198Z,0.00
2018-05-09T00:45:20.412Z,0.00
2018-05-09T00:46:20.631Z,0.00
2018-05-09T00:47:20.839Z,0.00
2018-05-09T00:48:22.688Z,0.00
2018-05-09T00:49:21.280Z,0.00
2018-05-09T00:50:21.521Z,0.00
2018-05-09T00:51:21.715Z,0.00
2018-05-09T00:52:21.943Z,0.00
2018-05-09T00:53:22.159Z,0.00
2018-05-09T00:54:22.368Z,0.00
2018-05-09T00:55:22.575Z,0.00
2018-05-09T00:56:22.794Z,0.00
2018-05-09T00:57:24.685Z,0.00
2018-05-09T00:58:23.158Z,0.00
2018-05-09T00:59:23.384Z,0.00
2018-05-09T01:00:23.585Z,0.00
2018-05-09T01:01:23.807Z,0.00
2018-05-09T01:02:24.015Z,0.00
2018-05-09T01:03:24.234Z,0.00
2018-05-09T01:04:24.463Z,0.00
2018-05-09T01:05:24.675Z,0.00
2018-05-09T01:06:24.905Z,0.00
2018-05-09T01:07:25.126Z,0.00
2018-05-09T01:08:25.333Z,0.00
2018-05-09T01:09:25.553Z,0.00
2018-05-09T01:10:25.758Z,0.00
2018-05-09T01:11:25.970Z,0.00
2018-05-09T01:12:26.194Z,0.00
2018-05-09T01:13:26.395Z,0.00
2018-05-09T01:14:26.626Z,0.00
2018-05-09T01:15:26.837Z,0.00
2018-05-09T01:16:27.074Z,0.00
2018-05-09T01:17:29.196Z,0.00
2018-05-09T01:18:27.409Z,0.00
2018-05-09T01:19:27.616Z,0.00
2018-05-09T01:20:27.836Z,0.00
2018-05-09T01:21:28.040Z,0.00
2018-05-09T01:22:28.247Z,0.00
2018-05-09T01:23:28.464Z,0.00
2018-05-09T01:24:28.672Z,0.00
2018-05-09T01:25:28.901Z,0.00
2018-05-09T01:26:30.693Z,0.00
2018-05-09T01:27:31.194Z,0.00
2018-05-09T01:28:29.402Z,0.00
2018-05-09T01:29:29.621Z,0.00
2018-05-09T01:30:29.830Z,0.00
2018-05-09T01:31:30.047Z,0.00
2018-05-09T01:32:32.207Z,0.00
2018-05-09T01:33:32.190Z,0.00
2018-05-09T01:34:30.530Z,0.00
2018-05-09T01:35:32.696Z,0.00
2018-05-09T01:36:30.908Z,0.00
2018-05-09T01:37:31.126Z,0.00
2018-05-09T01:38:31.334Z,0.00
2018-05-09T01:39:31.549Z,0.00
2018-05-09T01:40:31.758Z,0.00
2018-05-09T01:41:31.982Z,0.00
2018-05-09T01:42:32.202Z,0.00
2018-05-09T01:43:32.415Z,0.00
2018-05-09T01:44:32.629Z,0.00
2018-05-09T01:45:32.841Z,0.00
2018-05-09T01:46:36.699Z,0.00
2018-05-09T01:47:33.305Z,0.00
2018-05-09T01:48:33.497Z,0.00
2018-05-09T01:49:33.704Z,0.00
2018-05-09T01:50:33.927Z,0.00
2018-05-09T01:51:34.167Z,0.00
2018-05-09T01:52:34.379Z,0.00
2018-05-09T01:53:34.561Z,0.00
2018-05-09T01:54:34.784Z,0.00
2018-05-09T01:55:35.002Z,0.00
2018-05-09T01:56:35.218Z,0.00
2018-05-09T01:57:35.434Z,0.00
2018-05-09T01:58:35.655Z,0.00
2018-05-09T01:59:35.868Z,0.00
2018-05-09T02:00:36.104Z,0.00
2018-05-09T02:01:36.298Z,0.00
2018-05-09T02:02:36.506Z,0.00
2018-05-09T02:03:36.724Z,0.00
2018-05-09T02:04:36.932Z,0.00
2018-05-09T02:05:37.145Z,0.00
2018-05-09T02:06:40.198Z,0.00
2018-05-09T02:07:37.528Z,0.00
2018-05-09T02:08:37.742Z,0.00
2018-05-09T02:09:37.969Z,0.00
2018-05-09T02:10:38.171Z,0.00
2018-05-09T02:11:38.376Z,0.00
2018-05-09T02:12:38.597Z,0.00
2018-05-09T02:13:38.797Z,0.00
2018-05-09T02:14:39.019Z,0.00
2018-05-09T02:15:39.238Z,0.00
2018-05-09T02:16:39.496Z,0.00
2018-05-09T02:17:39.701Z,0.00
2018-05-09T02:18:39.900Z,0.00
2018-05-09T02:19:40.116Z,0.00
2018-05-09T02:20:40.327Z,0.00
2018-05-09T02:21:40.543Z,0.00
2018-05-09T02:22:40.764Z,0.00
2018-05-09T02:23:40.988Z,0.00
2018-05-09T02:24:41.189Z,0.00
2018-05-09T02:25:41.412Z,0.00
2018-05-09T02:26:41.624Z,0.00
2018-05-09T02:27:41.848Z,0.00
2018-05-09T02:28:42.075Z,0.00
2018-05-09T02:29:42.285Z,0.00
2018-05-09T02:30:44.200Z,0.00
2018-05-09T02:31:42.669Z,0.00
2018-05-09T02:32:42.884Z,0.00
2018-05-09T02:33:43.110Z,0.00
2018-05-09T02:34:43.322Z,0.00
2018-05-09T02:35:43.533Z,0.00
2018-05-09T02:36:43.750Z,0.00
2018-05-09T02:37:43.953Z,0.00
2018-05-09T02:38:44.161Z,0.00
2018-05-09T02:39:44.374Z,0.00
2018-05-09T02:40:44.581Z,0.00
2018-05-09T02:41:44.807Z,0.00
2018-05-09T02:42:45.015Z,0.00
2018-05-09T02:43:45.351Z,0.00
2018-05-09T02:44:45.440Z,0.00
2018-05-09T02:45:45.667Z,0.00
2018-05-09T02:46:45.921Z,0.00
2018-05-09T02:47:46.120Z,0.00
2018-05-09T02:48:48.090Z,0.00
2018-05-09T02:49:46.655Z,0.00
2018-05-09T02:50:46.778Z,0.00
2018-05-09T02:51:48.701Z,0.00
2018-05-09T02:52:47.174Z,0.00
2018-05-09T02:53:49.205Z,0.00
2018-05-09T02:54:47.533Z,0.00
2018-05-09T02:55:47.789Z,0.00
2018-05-09T02:56:47.971Z,0.00
2018-05-09T02:57:48.190Z,0.00
2018-05-09T02:58:50.202Z,0.00
2018-05-09T02:59:48.529Z,0.00
2018-05-09T03:00:48.743Z,0.00
2018-05-09T03:01:48.991Z,0.00
2018-05-09T03:02:49.195Z,0.00
2018-05-09T03:03:49.406Z,4.00
2018-05-09T03:04:49.633Z,4.00
2018-05-09T03:05:49.850Z,0.00
2018-05-09T03:06:50.059Z,0.00
2018-05-09T03:07:50.282Z,4.00
2018-05-09T03:08:50.509Z,4.00
2018-05-09T03:09:50.711Z,4.00
2018-05-09T03:10:50.916Z,4.00
2018-05-09T03:11:51.137Z,4.00
2018-05-09T03:12:51.346Z,4.00
2018-05-09T03:13:51.550Z,8.00
2018-05-09T03:14:51.772Z,8.00
2018-05-09T03:15:51.983Z,12.00
2018-05-09T03:16:52.203Z,12.00
2018-05-09T03:17:52.424Z,12.00
2018-05-09T03:18:52.644Z,12.00
2018-05-09T03:19:52.863Z,20.00
2018-05-09T03:20:53.082Z,20.00
2018-05-09T03:21:53.299Z,20.00
2018-05-09T03:22:53.530Z,28.00
2018-05-09T03:23:53.746Z,32.00
2018-05-09T03:24:53.957Z,36.00
2018-05-09T03:25:54.174Z,44.00
2018-05-09T03:26:56.194Z,48.00
2018-05-09T03:27:54.527Z,56.00
2018-05-09T03:28:54.759Z,64.00
2018-05-09T03:29:54.966Z,72.00
2018-05-09T03:30:55.188Z,80.00
2018-05-09T03:31:55.419Z,88.00
2018-05-09T03:32:58.200Z,100.00
2018-05-09T03:33:55.818Z,112.00
2018-05-09T03:34:56.015Z,128.00
2018-05-09T03:35:56.232Z,140.00
2018-05-09T03:36:56.448Z,156.00
2018-05-09T03:37:57.414Z,172.00
2018-05-09T03:38:56.895Z,188.00
2018-05-09T03:39:57.126Z,208.00
2018-05-09T03:40:57.333Z,228.00
2018-05-09T03:41:57.552Z,248.00
2018-05-09T03:42:57.765Z,272.00
2018-05-09T03:43:57.971Z,296.00
2018-05-09T03:44:59.703Z,320.00
2018-05-09T03:45:58.408Z,344.00
2018-05-09T03:46:58.611Z,372.00
2018-05-09T03:47:58.836Z,404.00
2018-05-09T03:49:00.700Z,432.00
2018-05-09T03:49:59.164Z,460.00
2018-05-09T03:50:59.388Z,492.00
2018-05-09T03:51:59.592Z,524.00
2018-05-09T03:52:59.803Z,560.00
2018-05-09T03:54:00.030Z,592.00
2018-05-09T03:55:00.221Z,632.00
2018-05-09T03:56:00.439Z,668.00
2018-05-09T03:57:00.666Z,708.00
2018-05-09T03:58:00.876Z,748.00
2018-05-09T03:59:01.101Z,788.00
2018-05-09T04:00:01.317Z,832.00
2018-05-09T04:01:01.526Z,872.00
2018-05-09T04:02:01.759Z,916.00
2018-05-09T04:03:01.948Z,964.00
2018-05-09T04:04:02.176Z,1008.00
2018-05-09T04:05:02.288Z,1052.00
2018-05-09T04:06:04.204Z,1100.00
2018-05-09T04:07:02.673Z,1148.00
2018-05-09T04:08:02.884Z,1200.00
2018-05-09T04:09:03.095Z,1248.00
2018-05-09T04:10:03.322Z,1300.00
2018-05-09T04:11:03.526Z,1352.00
2018-05-09T04:12:03.743Z,1404.00
2018-05-09T04:13:03.962Z,1460.00
2018-05-09T04:14:04.161Z,1508.00
2018-05-09T04:15:04.425Z,1564.00
2018-05-09T04:16:04.614Z,1624.00
2018-05-09T04:17:04.825Z,1684.00
2018-05-09T04:18:05.057Z,1740.00
2018-05-09T04:19:05.349Z,1800.00
2018-05-09T04:20:05.467Z,1856.00
2018-05-09T04:21:05.694Z,1916.00
2018-05-09T04:22:05.896Z,1964.00
2018-05-09T04:23:06.117Z,2020.00
2018-05-09T04:24:06.343Z,2072.00
2018-05-09T04:25:06.546Z,2132.00
2018-05-09T04:26:06.754Z,2192.00
2018-05-09T04:27:06.961Z,2256.00
2018-05-09T04:28:07.258Z,2316.00
2018-05-09T04:29:07.403Z,2372.00
2018-05-09T04:30:07.618Z,2424.00
2018-05-09T04:31:07.836Z,2488.00
2018-05-09T04:32:08.049Z,2564.00
2018-05-09T04:33:10.195Z,2620.00
2018-05-09T04:34:08.412Z,2676.00
2018-05-09T04:35:08.619Z,2724.00
2018-05-09T04:36:08.856Z,2776.00
2018-05-09T04:37:09.076Z,2820.00
2018-05-09T04:38:09.275Z,2880.00
2018-05-09T04:39:09.491Z,2936.00
2018-05-09T04:40:11.205Z,2984.00
2018-05-09T04:41:09.924Z,3040.00
2018-05-09T04:42:10.157Z,3100.00
2018-05-09T04:43:13.205Z,3188.00
2018-05-09T04:44:10.543Z,3288.00
2018-05-09T04:45:10.768Z,3368.00
2018-05-09T04:46:10.988Z,3416.00
2018-05-09T04:47:11.204Z,3432.00
2018-05-09T04:48:13.208Z,3460.00
2018-05-09T04:49:11.587Z,3512.00
2018-05-09T04:50:11.745Z,3564.00
2018-05-09T04:51:13.694Z,3628.00
2018-05-09T04:52:12.155Z,3724.00
2018-05-09T04:53:12.409Z,3756.00
2018-05-09T04:54:12.579Z,3776.00
2018-05-09T04:55:14.719Z,3832.00
2018-05-09T04:56:15.702Z,3896.00
2018-05-09T04:57:13.154Z,4008.00
2018-05-09T04:58:13.373Z,4148.00
2018-05-09T04:59:13.592Z,4384.00
2018-05-09T05:00:13.809Z,4500.00
2018-05-09T05:01:14.023Z,4340.00
2018-05-09T05:02:14.250Z,4304.00
2018-05-09T05:03:14.462Z,4264.00
2018-05-09T05:04:14.677Z,4364.00
2018-05-09T05:05:14.881Z,4572.00
2018-05-09T05:06:16.693Z,4832.00
2018-05-09T05:07:15.287Z,4968.00
2018-05-09T05:08:15.498Z,4992.00
2018-05-09T05:09:15.708Z,4824.00
2018-05-09T05:10:17.695Z,4688.00
2018-05-09T05:11:16.163Z,4692.00
2018-05-09T05:12:16.420Z,4832.00
2018-05-09T05:13:16.611Z,5360.00
2018-05-09T05:14:18.694Z,5520.00
2018-05-09T05:15:17.037Z,5360.00
2018-05-09T05:16:19.194Z,5532.00
2018-05-09T05:17:17.405Z,6208.00
2018-05-09T05:18:17.618Z,6628.00
2018-05-09T05:19:19.695Z,6912.00
2018-05-09T05:20:18.036Z,7248.00
2018-05-09T05:21:18.259Z,6852.00
2018-05-09T05:22:18.469Z,5908.00
2018-05-09T05:23:18.685Z,5732.00
2018-05-09T05:24:20.707Z,6652.00
2018-05-09T05:25:19.062Z,7980.00
2018-05-09T05:26:19.269Z,8688.00
2018-05-09T05:27:19.488Z,9012.00
2018-05-09T05:28:19.709Z,9464.00
2018-05-09T05:29:19.925Z,9708.00
2018-05-09T05:30:20.132Z,9692.00
2018-05-09T05:31:20.353Z,10096.00
2018-05-09T05:32:20.577Z,10740.00
2018-05-09T05:33:20.793Z,10836.00
2018-05-09T05:34:22.708Z,10292.00
2018-05-09T05:35:21.178Z,10016.00
2018-05-09T05:36:21.387Z,10480.00
2018-05-09T05:37:21.623Z,11240.00
2018-05-09T05:38:21.860Z,11756.00
2018-05-09T05:39:23.701Z,11960.00
2018-05-09T05:40:22.295Z,11748.00
2018-05-09T05:41:22.509Z,11368.00
2018-05-09T05:42:24.697Z,11060.00
2018-05-09T05:43:22.913Z,11116.00
2018-05-09T05:44:24.705Z,11512.00
2018-05-09T05:45:23.393Z,11836.00
2018-05-09T05:46:23.524Z,11984.00
2018-05-09T05:47:23.753Z,12200.00
2018-05-09T05:48:25.700Z,12924.00
2018-05-09T05:49:24.164Z,13720.00
2018-05-09T05:50:24.401Z,13920.00
2018-05-09T05:51:24.601Z,13836.00
2018-05-09T05:52:24.822Z,13760.00
2018-05-09T05:53:26.744Z,13540.00
2018-05-09T05:54:25.173Z,13304.00
2018-05-09T05:55:25.391Z,13952.00
2018-05-09T05:56:25.617Z,14848.00
2018-05-09T05:57:25.833Z,15360.00
2018-05-09T05:58:26.045Z,14944.00
2018-05-09T05:59:26.255Z,14272.00
2018-05-09T06:00:26.466Z,14816.00
2018-05-09T06:01:26.689Z,16224.00
2018-05-09T06:02:26.924Z,17280.00
2018-05-09T06:03:27.129Z,17344.00
2018-05-09T06:04:27.365Z,16544.00
2018-05-09T06:05:27.573Z,16256.00
2018-05-09T06:06:27.846Z,17472.00
2018-05-09T06:07:28.038Z,11840.00
2018-05-09T06:08:28.228Z,17696.00
2018-05-09T06:09:28.440Z,17760.00
2018-05-09T06:10:28.703Z,18752.00
2018-05-09T06:11:32.699Z,19296.00
2018-05-09T06:12:29.047Z,21120.00
2018-05-09T06:13:29.266Z,23072.00
2018-05-09T06:14:31.216Z,23840.00
2018-05-09T06:15:29.695Z,23456.00
2018-05-09T06:16:29.910Z,23040.00
2018-05-09T06:17:30.139Z,22816.00
2018-05-09T06:18:30.368Z,23488.00
2018-05-09T06:19:32.211Z,23808.00
2018-05-09T06:20:30.797Z,23040.00
2018-05-09T06:21:31.031Z,22688.00
2018-05-09T06:22:31.252Z,23296.00
2018-05-09T06:23:33.221Z,24256.00
2018-05-09T06:24:31.706Z,25024.00
2018-05-09T06:25:31.919Z,25088.00
2018-05-09T06:26:32.139Z,24480.00
2018-05-09T06:27:33.358Z,23904.00
2018-05-09T06:28:34.202Z,23776.00
2018-05-09T06:29:32.808Z,24960.00
2018-05-09T06:30:33.020Z,11504.00
2018-05-09T06:31:33.239Z,14648.00
2018-05-09T06:32:33.470Z,29664.00
2018-05-09T06:33:33.648Z,30080.00
2018-05-09T06:34:33.748Z,27456.00
2018-05-09T06:35:33.966Z,11448.00
2018-05-09T06:36:35.708Z,10516.00
2018-05-09T06:37:36.257Z,10544.00
2018-05-09T06:38:37.212Z,11104.00
2018-05-09T06:39:34.837Z,12216.00
2018-05-09T06:40:35.035Z,14524.00
2018-05-09T06:41:35.192Z,31936.00
2018-05-09T06:42:35.330Z,30528.00
2018-05-09T06:43:35.553Z,35424.00
2018-05-09T06:44:35.806Z,27264.00
2018-05-09T06:45:37.713Z,27360.00
2018-05-09T06:46:36.049Z,21984.00
2018-05-09T06:47:36.262Z,17440.00
2018-05-09T06:48:38.211Z,18848.00
2018-05-09T06:49:38.206Z,30080.00
2018-05-09T06:50:38.704Z,37856.00
2018-05-09T06:51:38.707Z,37184.00
2018-05-09T06:52:37.167Z,37056.00
2018-05-09T06:53:39.210Z,36352.00
2018-05-09T06:54:37.558Z,35328.00
2018-05-09T06:55:37.818Z,32672.00
2018-05-09T06:56:38.058Z,36160.00
2018-05-09T06:57:38.262Z,26784.00
2018-05-09T06:58:39.495Z,39840.00
2018-05-09T06:59:41.706Z,40832.00
2018-05-09T07:00:41.718Z,40896.00
2018-05-09T07:01:41.725Z,39584.00
2018-05-09T07:02:42.708Z,37344.00
2018-05-09T07:03:43.211Z,36192.00
2018-05-09T07:04:41.229Z,37184.00
2018-05-09T07:05:43.223Z,39648.00
2018-05-09T07:06:42.137Z,35200.00
2018-05-09T07:07:41.113Z,17152.00
2018-05-09T07:08:40.240Z,12964.00
2018-05-09T07:09:41.375Z,13352.00
2018-05-09T07:11:02.481Z,16096.00
2018-05-09T07:11:42.235Z,24352.00
2018-05-09T07:12:42.807Z,35840.00
2018-05-09T07:13:42.765Z,25600.00
2018-05-09T07:14:41.193Z,16672.00
2018-05-09T07:15:43.206Z,13072.00
2018-05-09T07:16:43.206Z,12756.00
2018-05-09T07:17:43.210Z,13348.00
2018-05-09T07:18:43.714Z,15740.00
2018-05-09T07:19:42.079Z,17536.00
2018-05-09T07:20:42.290Z,17760.00
2018-05-09T07:21:44.216Z,26368.00
2018-05-09T07:22:44.215Z,15988.00
2018-05-09T07:23:45.737Z,13728.00
2018-05-09T07:24:44.725Z,14228.00
2018-05-09T07:25:45.223Z,17216.00
2018-05-09T07:26:43.573Z,24416.00
2018-05-09T07:27:43.844Z,21344.00
2018-05-09T07:28:44.068Z,27904.00
2018-05-09T07:29:46.161Z,21952.00
2018-05-09T07:30:46.244Z,26080.00
2018-05-09T07:31:44.725Z,28768.00
2018-05-09T07:32:46.728Z,34208.00
2018-05-09T07:33:46.757Z,43872.00
2018-05-09T07:34:45.311Z,42912.00
2018-05-09T07:35:47.251Z,42784.00
2018-05-09T07:36:47.219Z,43456.00
2018-05-09T07:37:48.752Z,45088.00
2018-05-09T07:38:45.992Z,46720.00
2018-05-09T07:39:46.222Z,48032.00
2018-05-09T07:40:48.244Z,47968.00
2018-05-09T07:41:48.310Z,46304.00
2018-05-09T07:42:53.021Z,44544.00
2018-05-09T07:43:47.707Z,42688.00
2018-05-09T07:44:47.197Z,42336.00
2018-05-09T07:45:47.432Z,42464.00
2018-05-09T07:46:47.663Z,43904.00
2018-05-09T07:47:49.789Z,45184.00
2018-05-09T07:48:50.181Z,45536.00
2018-05-09T07:49:50.339Z,45024.00
2018-05-09T07:50:48.425Z,45376.00
2018-05-09T07:51:50.219Z,45280.00
2018-05-09T07:52:48.812Z,44288.00
2018-05-09T07:53:53.986Z,42208.00
2018-05-09T07:54:56.713Z,40064.00
2018-05-09T07:55:49.446Z,39456.00
2018-05-09T07:56:57.283Z,40384.00
2018-05-09T07:57:51.738Z,44128.00
2018-05-09T07:58:50.113Z,47648.00
2018-05-09T07:59:51.196Z,49728.00
2018-05-09T08:00:52.584Z,50624.00
2018-05-09T08:01:50.686Z,48864.00
2018-05-09T08:02:53.200Z,46048.00
2018-05-09T08:03:54.735Z,45056.00
2018-05-09T08:04:51.342Z,47584.00
2018-05-09T08:05:51.573Z,51904.00
2018-05-09T08:06:53.722Z,56512.00
2018-05-09T08:07:55.729Z,57952.00
2018-05-09T08:08:53.725Z,54880.00
2018-05-09T08:09:53.439Z,49088.00
2018-05-09T08:10:52.716Z,42720.00
2018-05-09T08:11:53.674Z,38368.00
2018-05-09T08:12:54.723Z,38720.00
2018-05-09T08:13:55.767Z,43648.00
2018-05-09T08:14:54.175Z,49888.00
2018-05-09T08:15:55.216Z,53632.00
2018-05-09T08:16:56.216Z,55776.00
2018-05-09T08:17:54.425Z,54912.00
2018-05-09T08:18:55.190Z,54176.00
2018-05-09T08:19:58.977Z,55744.00
2018-05-09T08:20:56.223Z,59328.00
2018-05-09T08:21:54.862Z,62208.00
2018-05-09T08:22:55.047Z,62624.00
2018-05-09T08:23:59.265Z,59904.00
2018-05-09T08:25:11.215Z,55392.00
2018-05-09T08:25:55.750Z,51008.00
2018-05-09T08:26:59.720Z,48256.00
2018-05-09T08:27:59.722Z,49632.00
2018-05-09T08:28:57.672Z,54336.00
2018-05-09T08:29:58.220Z,59904.00
2018-05-09T08:30:58.549Z,62048.00
2018-05-09T08:32:01.670Z,61824.00
2018-05-09T08:32:58.717Z,58848.00
2018-05-09T08:33:58.724Z,53760.00
2018-05-09T08:34:59.455Z,50368.00
2018-05-09T08:36:03.278Z,48640.00
2018-05-09T08:37:00.186Z,49216.00
2018-05-09T08:37:58.867Z,53152.00
2018-05-09T08:39:05.719Z,59936.00
2018-05-09T08:40:00.411Z,65440.00
2018-05-09T08:41:00.241Z,66912.00
2018-05-09T08:42:00.232Z,65120.00
2018-05-09T08:43:01.731Z,61024.00
2018-05-09T08:43:59.130Z,57984.00
2018-05-09T08:45:20.166Z,58048.00
2018-05-09T08:45:59.366Z,59040.00
2018-05-09T08:47:23.200Z,60000.00
2018-05-09T08:48:03.845Z,60288.00
2018-05-09T08:49:01.700Z,60640.00
2018-05-09T08:50:01.721Z,60928.00
2018-05-09T08:51:05.095Z,62912.00
2018-05-09T08:52:23.636Z,64288.00
2018-05-09T08:53:00.877Z,66784.00
2018-05-09T08:54:02.715Z,67328.00
2018-05-09T08:55:02.722Z,66080.00
2018-05-09T08:56:05.268Z,63136.00
2018-05-09T08:57:02.541Z,61216.00
2018-05-09T08:58:05.663Z,60512.00
2018-05-09T08:59:03.676Z,61760.00
2018-05-09T09:00:02.045Z,65440.00
2018-05-09T09:01:04.219Z,67936.00
2018-05-09T09:02:02.449Z,69472.00
2018-05-09T09:03:24.638Z,67744.00
2018-05-09T09:04:05.691Z,65856.00
2018-05-09T09:05:05.668Z,63744.00
2018-05-09T09:06:05.271Z,62560.00
2018-05-09T09:07:05.700Z,61728.00
2018-05-09T09:08:10.250Z,60576.00
2018-05-09T09:09:06.723Z,59936.00
2018-05-09T09:10:07.702Z,61088.00
2018-05-09T09:11:08.170Z,61568.00
2018-05-09T09:12:08.162Z,41280.00
2018-05-09T09:13:04.791Z,20800.00
2018-05-09T09:14:05.014Z,63072.00
2018-05-09T09:15:07.232Z,31200.00
2018-05-09T09:16:10.209Z,65920.00
2018-05-09T09:17:28.222Z,15644.00
2018-05-09T09:18:05.908Z,14484.00
2018-05-09T09:19:07.721Z,63776.00
2018-05-09T09:20:08.707Z,65120.00
2018-05-09T09:21:07.176Z,64576.00
2018-05-09T09:22:10.234Z,63456.00
2018-05-09T09:23:06.819Z,64480.00
2018-05-09T09:24:08.713Z,66144.00
2018-05-09T09:25:07.186Z,65472.00
2018-05-09T09:26:08.221Z,66368.00
2018-05-09T09:27:07.681Z,66624.00
2018-05-09T09:28:09.036Z,65568.00
2018-05-09T09:29:08.287Z,62432.00
2018-05-09T09:30:08.289Z,62656.00
2018-05-09T09:31:10.229Z,62656.00
2018-05-09T09:32:11.225Z,61504.00
2018-05-09T09:33:10.742Z,63584.00
2018-05-09T09:34:10.737Z,65280.00
2018-05-09T09:35:10.720Z,67520.00
2018-05-09T09:36:09.502Z,68320.00
2018-05-09T09:37:09.670Z,64448.00
2018-05-09T09:38:09.899Z,60000.00
2018-05-09T09:39:12.206Z,57216.00
2018-05-09T09:40:13.701Z,55392.00
2018-05-09T09:41:12.236Z,55200.00
2018-05-09T09:42:12.219Z,58496.00
2018-05-09T09:43:26.963Z,62176.00
2018-05-09T09:44:11.196Z,64384.00
2018-05-09T09:45:13.682Z,64128.00
2018-05-09T09:46:27.394Z,61984.00
2018-05-09T09:47:13.249Z,59200.00
2018-05-09T09:48:13.841Z,58720.00
2018-05-09T09:49:13.719Z,60672.00
2018-05-09T09:50:12.325Z,64192.00
2018-05-09T09:51:14.241Z,66528.00
2018-05-09T09:52:14.227Z,65024.00
2018-05-09T09:53:15.215Z,61408.00
2018-05-09T09:54:13.137Z,57440.00
2018-05-09T09:55:17.927Z,54432.00
2018-05-09T09:56:13.488Z,54176.00
2018-05-09T09:57:14.734Z,57440.00
2018-05-09T09:58:19.214Z,62688.00
2018-05-09T09:59:17.820Z,65568.00
2018-05-09T10:00:16.227Z,64960.00
2018-05-09T10:01:14.632Z,62304.00
2018-05-09T10:02:17.727Z,58432.00
2018-05-09T10:03:16.718Z,54368.00
2018-05-09T10:04:16.204Z,54432.00
2018-05-09T10:05:19.260Z,57792.00
2018-05-09T10:06:18.233Z,61632.00
2018-05-09T10:07:15.870Z,64704.00
2018-05-09T10:08:31.741Z,65216.00
2018-05-09T10:09:17.670Z,62432.00
2018-05-09T10:10:18.218Z,59680.00
2018-05-09T10:11:21.689Z,59744.00
2018-05-09T10:12:17.940Z,60832.00
2018-05-09T10:13:19.171Z,62624.00
2018-05-09T10:14:19.217Z,64960.00
2018-05-09T10:15:19.221Z,63744.00
2018-05-09T10:16:19.223Z,61792.00
2018-05-09T10:17:19.410Z,60864.00
2018-05-09T10:18:17.910Z,61376.00
2018-05-09T10:19:19.738Z,63712.00
2018-05-09T10:20:24.170Z,67008.00
2018-05-09T10:21:20.220Z,68256.00
2018-05-09T10:22:20.225Z,66912.00
2018-05-09T10:23:20.819Z,64768.00
2018-05-09T10:24:19.145Z,58624.00
2018-05-09T10:25:19.345Z,52544.00
2018-05-09T10:26:23.568Z,50048.00
2018-05-09T10:27:21.776Z,50656.00
2018-05-09T10:28:19.957Z,51904.00
2018-05-09T10:29:20.189Z,29024.00
2018-05-09T10:30:20.365Z,53760.00
2018-05-09T10:31:26.442Z,65792.00
2018-05-09T10:32:22.729Z,65632.00
2018-05-09T10:33:28.745Z,13232.00
2018-05-09T10:34:22.733Z,13172.00
2018-05-09T10:35:22.229Z,63232.00
2018-05-09T10:36:22.216Z,61312.00
2018-05-09T10:37:21.702Z,59840.00
2018-05-09T10:38:23.194Z,56576.00
2018-05-09T10:39:23.092Z,55328.00
2018-05-09T10:40:24.197Z,54848.00
2018-05-09T10:41:26.218Z,54304.00
2018-05-09T10:42:27.060Z,55488.00
2018-05-09T10:43:28.939Z,58304.00
2018-05-09T10:44:23.157Z,20672.00
2018-05-09T10:45:23.872Z,14568.00
2018-05-09T10:46:28.554Z,13160.00
2018-05-09T10:47:27.748Z,57472.00
2018-05-09T10:48:25.726Z,67808.00
2018-05-09T10:49:25.690Z,66048.00
2018-05-09T10:50:24.310Z,63040.00
2018-05-09T10:51:24.537Z,60352.00
2018-05-09T10:52:24.773Z,59808.00
2018-05-09T10:53:26.691Z,61600.00
2018-05-09T10:54:26.732Z,63168.00
2018-05-09T10:55:27.270Z,64256.00
2018-05-09T10:56:28.229Z,64384.00
2018-05-09T10:57:27.235Z,63232.00
2018-05-09T10:58:33.199Z,60320.00
2018-05-09T10:59:26.192Z,57024.00
2018-05-09T11:00:28.241Z,56928.00
2018-05-09T11:01:28.225Z,56576.00
2018-05-09T11:02:28.719Z,56064.00
2018-05-09T11:03:28.686Z,57600.00
2018-05-09T11:04:28.951Z,59744.00
2018-05-09T11:05:27.507Z,60032.00
2018-05-09T11:06:32.683Z,61920.00
2018-05-09T11:07:29.724Z,62336.00
2018-05-09T11:08:30.724Z,60864.00
2018-05-09T11:09:30.761Z,59712.00
2018-05-09T11:10:32.200Z,59040.00
2018-05-09T11:11:31.224Z,58592.00
2018-05-09T11:12:28.705Z,58176.00
2018-05-09T11:13:28.939Z,57888.00
2018-05-09T11:14:36.904Z,57728.00
2018-05-09T11:15:31.239Z,59200.00
2018-05-09T11:16:31.166Z,60736.00
2018-05-09T11:17:44.730Z,64160.00
2018-05-09T11:18:30.279Z,63648.00
2018-05-09T11:19:31.209Z,58240.00
2018-05-09T11:20:32.236Z,33568.00
2018-05-09T11:21:32.674Z,17856.00
2018-05-09T11:22:30.670Z,17536.00
2018-05-09T11:23:34.722Z,17600.00
2018-05-09T11:24:37.744Z,17696.00
2018-05-09T11:25:35.274Z,17792.00
2018-05-09T11:26:32.218Z,17920.00
2018-05-09T11:27:36.181Z,17856.00
2018-05-09T11:28:33.767Z,17440.00
2018-05-09T11:29:32.691Z,17472.00
2018-05-09T11:30:34.223Z,17856.00
2018-05-09T11:31:32.461Z,18368.00
2018-05-09T11:32:41.238Z,16972.00
2018-05-09T11:33:34.751Z,18464.00
2018-05-09T11:34:57.757Z,18432.00
2018-05-09T11:35:33.135Z,18880.00
2018-05-09T11:36:38.187Z,18720.00
2018-05-09T11:37:33.563Z,19040.00
2018-05-09T11:38:35.174Z,18976.00
2018-05-09T11:39:35.735Z,18528.00
2018-05-09T11:40:34.115Z,17824.00
2018-05-09T11:41:37.727Z,19904.00
2018-05-09T11:42:35.477Z,19392.00
2018-05-09T11:43:36.221Z,17792.00
2018-05-09T11:44:39.187Z,16812.00
2018-05-09T11:45:38.687Z,18144.00
2018-05-09T11:46:39.225Z,28736.00
2018-05-09T11:47:35.553Z,49408.00
2018-05-09T11:48:38.169Z,53408.00
2018-05-09T11:49:35.941Z,54240.00
2018-05-09T11:50:36.040Z,55488.00
2018-05-09T11:51:36.292Z,55264.00
2018-05-09T11:52:38.259Z,54496.00
2018-05-09T11:53:37.428Z,52864.00
2018-05-09T11:54:36.913Z,51776.00
2018-05-09T11:55:38.765Z,51520.00
2018-05-09T11:56:53.250Z,51744.00
2018-05-09T11:57:37.654Z,53632.00
2018-05-09T11:58:39.233Z,55744.00
2018-05-09T11:59:39.738Z,56608.00
2018-05-09T12:00:39.749Z,58208.00
2018-05-09T12:01:39.358Z,17376.00
2018-05-09T12:02:38.678Z,19072.00
2018-05-09T12:03:41.726Z,17216.00
2018-05-09T12:04:40.736Z,18112.00
2018-05-09T12:05:46.734Z,16380.00
2018-05-09T12:06:39.453Z,20896.00
2018-05-09T12:07:41.184Z,16832.00
2018-05-09T12:08:40.936Z,18336.00
2018-05-09T12:09:41.749Z,18176.00
2018-05-09T12:10:44.355Z,47904.00
2018-05-09T12:11:44.467Z,49376.00
2018-05-09T12:12:42.729Z,45664.00
2018-05-09T12:13:40.970Z,39520.00
2018-05-09T12:14:42.756Z,33248.00
2018-05-09T12:15:43.229Z,17120.00